Time;durP1;ratioP1;P1;durP2;ratioP2;P2;SDS_P1;SDS_P2;PMS_P1;PMS_P2;Temp;Humidity;BMP_temperature;BMP_pressure;BME280_temperature;BME280_humidity;BME280_pressure;Samples;Min_cycle;Max_cycle;Signal;HPM_P1;HPM_P2
2023/10/06 00:00:53;;;;;;;12.13;4.57;;;;;11.90;102035.00;;;;10419099;28;20221;-79
2023/10/06 00:05:56;;;;;;;8.23;4.47;;;;;11.90;102038.00;;;;10435072;28;20825;-80
2023/10/06 00:11:10;;;;;;;10.67;4.70;;;;;11.90;102035.00;;;;10430704;28;20233;-81
2023/10/06 00:16:12;;;;;;;8.63;4.40;;;;;11.80;102040.00;;;;10413119;28;20253;-80
2023/10/06 00:21:15;;;;;;;9.17;4.37;;;;;11.70;102050.00;;;;10421395;28;20211;-79
2023/10/06 00:26:17;;;;;;;9.30;4.67;;;;;11.60;102041.00;;;;10408094;28;20234;-79
2023/10/06 00:31:24;;;;;;;7.67;3.90;;;;;11.50;102040.00;;;;10416388;28;20222;-78
2023/10/06 00:36:29;;;;;;;8.10;3.90;;;;;11.50;102040.00;;;;10436840;28;20206;-81
2023/10/06 00:41:31;;;;;;;8.23;4.43;;;;;11.40;102049.00;;;;10439439;28;20738;-80
2023/10/06 00:46:33;;;;;;;10.50;4.37;;;;;11.40;102038.00;;;;10431075;28;20238;-79
2023/10/06 00:51:34;;;;;;;10.47;4.63;;;;;11.40;102038.00;;;;10416313;28;20202;-79
2023/10/06 00:56:38;;;;;;;8.53;4.50;;;;;11.40;102038.00;;;;10432846;28;20211;-79
2023/10/06 01:01:40;;;;;;;10.77;4.70;;;;;11.40;102028.00;;;;10421316;28;20301;-81
2023/10/06 01:06:42;;;;;;;12.17;4.70;;;;;11.30;102034.00;;;;10402672;28;20253;-79
2023/10/06 01:11:50;;;;;;;10.40;4.67;;;;;11.30;102016.00;;;;10404830;28;20214;-79
2023/10/06 01:17:14;;;;;;;13.20;5.23;;;;;11.30;102011.00;;;;10421082;28;20249;-79
2023/10/06 01:22:28;;;;;;;10.37;5.00;;;;;11.30;102003.00;;;;10421895;28;20230;-78
2023/10/06 01:27:30;;;;;;;6.90;4.63;;;;;11.30;102001.00;;;;10438574;28;20212;-79
2023/10/06 01:32:32;;;;;;;9.67;4.67;;;;;11.40;101989.00;;;;10423268;28;20209;-79
2023/10/06 01:37:34;;;;;;;12.03;5.10;;;;;11.40;101987.00;;;;10433928;28;20199;-79
2023/10/06 01:42:36;;;;;;;10.57;4.33;;;;;11.50;101995.00;;;;10432272;28;20227;-80
2023/10/06 01:47:38;;;;;;;9.47;4.97;;;;;11.50;101991.00;;;;10413054;28;20226;-79
2023/10/06 01:52:40;;;;;;;8.13;4.17;;;;;11.50;101988.00;;;;10438668;28;20198;-80
2023/10/06 01:57:44;;;;;;;15.57;6.30;;;;;11.50;101992.00;;;;10423567;28;20615;-80
2023/10/06 02:02:50;;;;;;;7.93;4.07;;;;;11.50;101987.00;;;;10434964;28;20218;-80
2023/10/06 02:08:00;;;;;;;10.77;4.10;;;;;11.60;101977.00;;;;10421242;28;20217;-81
2023/10/06 02:13:06;;;;;;;9.93;4.17;;;;;11.60;101987.00;;;;10440311;28;20202;-83
2023/10/06 02:18:12;;;;;;;7.37;3.80;;;;;11.60;101979.00;;;;10397837;28;20221;-83
2023/10/06 02:23:15;;;;;;;8.03;4.07;;;;;11.60;101976.00;;;;10417296;28;20226;-83
2023/10/06 02:28:20;;;;;;;10.17;4.10;;;;;11.60;101955.00;;;;10405642;28;20747;-84
2023/10/06 02:33:24;;;;;;;11.73;4.17;;;;;11.60;101970.00;;;;10419163;28;20296;-84
2023/10/06 02:38:38;;;;;;;7.87;4.07;;;;;11.70;101967.00;;;;10422930;28;20772;-84
2023/10/06 02:43:40;;;;;;;8.03;3.63;;;;;11.70;101949.00;;;;10430449;28;20890;-84
2023/10/06 02:48:48;;;;;;;6.00;3.30;;;;;11.70;101959.00;;;;10420874;28;20309;-84
2023/10/06 02:53:50;;;;;;;11.43;3.87;;;;;11.70;101956.00;;;;10422402;28;20210;-84
2023/10/06 02:58:53;;;;;;;8.83;3.60;;;;;11.60;101956.00;;;;10412629;28;20214;-83
2023/10/06 03:04:07;;;;;;;9.27;3.60;;;;;11.50;101949.00;;;;10417068;28;20762;-84
2023/10/06 03:09:11;;;;;;;7.47;3.37;;;;;11.50;101944.00;;;;10426714;28;20230;-84
2023/10/06 03:14:14;;;;;;;10.67;3.83;;;;;11.40;101951.00;;;;10415935;28;20254;-84
2023/10/06 03:19:18;;;;;;;8.53;3.63;;;;;11.50;101971.00;;;;10405755;28;20219;-88
2023/10/06 03:24:31;;;;;;;7.37;3.87;;;;;11.50;101973.00;;;;10424030;28;20236;-87
2023/10/06 03:34:58;;;;;;;10.87;4.10;;;;;11.70;101972.00;;;;10415006;28;20215;-86
2023/10/06 03:40:11;;;;;;;9.80;3.73;;;;;11.70;101967.00;;;;10432226;28;20218;-87
2023/10/06 03:45:32;;;;;;;8.57;3.73;;;;;11.70;101960.00;;;;10446595;28;20230;-89
2023/10/06 03:50:39;;;;;;;7.67;3.63;;;;;11.70;101959.00;;;;10442875;28;20211;-87
2023/10/06 03:55:46;;;;;;;11.10;4.10;;;;;11.60;101954.00;;;;10421564;28;20221;-86
2023/10/06 04:00:49;;;;;;;7.13;3.63;;;;;11.50;101953.00;;;;10453247;28;20350;-86
2023/10/06 04:05:52;;;;;;;11.77;4.10;;;;;11.50;101964.00;;;;10531383;22;20217;-86
2023/10/06 04:10:58;;;;;;;9.23;3.90;;;;;11.40;101960.00;;;;10474698;28;20214;-85
2023/10/06 04:16:02;;;;;;;10.70;4.43;;;;;11.40;101942.00;;;;10446601;28;20218;-88
2023/10/06 04:21:04;;;;;;;10.93;4.13;;;;;11.40;101939.00;;;;10413268;28;20714;-89
2023/10/06 04:26:07;;;;;;;15.47;4.47;;;;;11.40;101939.00;;;;10435206;28;20214;-87
2023/10/06 04:31:09;;;;;;;9.93;4.03;;;;;11.50;101938.00;;;;10413668;28;20207;-79
2023/10/06 04:36:18;;;;;;;9.43;3.70;;;;;11.50;101939.00;;;;10409458;28;20217;-79
2023/10/06 04:41:20;;;;;;;11.83;4.40;;;;;11.40;101945.00;;;;10442860;28;20756;-80
2023/10/06 04:46:23;;;;;;;6.60;3.53;;;;;11.40;101943.00;;;;10402019;28;20226;-79
2023/10/06 04:51:27;;;;;;;13.93;4.27;;;;;11.30;101943.00;;;;10428671;28;20217;-80
2023/10/06 04:56:32;;;;;;;8.13;3.40;;;;;11.20;101942.00;;;;10428141;28;20678;-79
2023/10/06 05:01:34;;;;;;;11.77;4.20;;;;;11.20;101948.00;;;;10393816;28;20221;-79
2023/10/06 05:06:36;;;;;;;11.17;4.57;;;;;11.20;101928.00;;;;10416295;28;20750;-80
2023/10/06 05:11:38;;;;;;;9.40;4.17;;;;;11.30;101926.00;;;;10412143;28;20798;-81
2023/10/06 05:16:40;;;;;;;16.73;4.60;;;;;11.20;101926.00;;;;10428194;28;20260;-79
2023/10/06 05:21:43;;;;;;;8.80;4.50;;;;;11.10;101929.00;;;;10403754;28;20911;-80
2023/10/06 05:26:45;;;;;;;12.20;4.57;;;;;11.10;101907.00;;;;10370968;28;20226;-79
2023/10/06 05:31:47;;;;;;;18.40;4.50;;;;;11.00;101913.00;;;;10405267;28;20260;-81
2023/10/06 05:36:50;;;;;;;9.90;4.10;;;;;11.00;101914.00;;;;10385706;28;20210;-80
2023/10/06 05:41:52;;;;;;;9.47;4.60;;;;;11.00;101923.00;;;;10377291;28;20632;-80
2023/10/06 05:46:54;;;;;;;9.77;5.13;;;;;10.90;101919.00;;;;10368634;28;20974;-79
2023/10/06 05:51:56;;;;;;;11.40;4.63;;;;;10.90;101922.00;;;;10407214;28;20206;-78
2023/10/06 05:57:01;;;;;;;8.67;4.97;;;;;10.80;101917.00;;;;10386503;28;20206;-82
2023/10/06 06:02:04;;;;;;;10.13;4.33;;;;;10.90;101927.00;;;;10364012;28;20302;-80
2023/10/06 06:07:08;;;;;;;11.57;4.77;;;;;11.00;101931.00;;;;10388472;28;20218;-79
2023/10/06 06:12:11;;;;;;;17.43;5.00;;;;;11.10;101930.00;;;;10382677;28;20308;-79
2023/10/06 06:17:12;;;;;;;9.73;4.53;;;;;11.30;101927.00;;;;10351708;28;20300;-80
2023/10/06 06:22:16;;;;;;;13.90;4.97;;;;;11.60;101930.00;;;;10362557;28;20249;-80
2023/10/06 06:27:18;;;;;;;12.53;4.90;;;;;11.80;101929.00;;;;10367105;28;20326;-79
2023/10/06 06:32:20;;;;;;;11.80;4.83;;;;;11.90;101926.00;;;;10363077;28;20234;-79
2023/10/06 06:37:23;;;;;;;11.03;4.87;;;;;12.00;101936.00;;;;10397986;28;20219;-81
2023/10/06 06:42:24;;;;;;;8.90;4.33;;;;;12.20;101952.00;;;;10384167;28;20207;-79
2023/10/06 06:47:27;;;;;;;11.80;4.07;;;;;12.30;101952.00;;;;10385162;28;20691;-80
2023/10/06 06:52:29;;;;;;;12.17;5.37;;;;;12.50;101953.00;;;;10363527;28;20297;-85
2023/10/06 06:57:31;;;;;;;9.13;4.60;;;;;12.80;101962.00;;;;10384184;28;20910;-85
2023/10/06 07:02:34;;;;;;;10.87;4.40;;;;;13.10;101961.00;;;;10370848;28;20329;-85
2023/10/06 07:07:40;;;;;;;11.70;5.37;;;;;13.20;101953.00;;;;10367300;28;20218;-85
2023/10/06 07:12:42;;;;;;;9.98;4.60;;;;;13.50;101945.00;;;;10358177;28;20394;-85
2023/10/06 07:17:53;;;;;;;16.15;4.93;;;;;13.60;101952.00;;;;10388821;28;20235;-86
2023/10/06 07:23:00;;;;;;;9.57;4.28;;;;;13.90;101943.00;;;;10362960;28;20233;-86
2023/10/06 07:28:05;;;;;;;10.52;4.82;;;;;14.40;101958.00;;;;10371653;28;20306;-86
2023/10/06 07:33:07;;;;;;;9.50;4.45;;;;;14.80;101954.00;;;;10355684;28;20286;-86
2023/10/06 07:38:13;;;;;;;10.40;4.68;;;;;14.90;101955.00;;;;10371142;28;20211;-85
2023/10/06 07:43:17;;;;;;;9.25;4.65;;;;;15.40;101959.00;;;;10359623;28;20313;-85
2023/10/06 07:48:20;;;;;;;12.50;5.00;;;;;15.80;101952.00;;;;10397209;28;20257;-83
2023/10/06 07:53:21;;;;;;;9.55;4.55;;;;;16.10;101955.00;;;;10380083;28;20218;-87
2023/10/06 07:58:23;;;;;;;11.60;4.10;;;;;16.60;101957.00;;;;10360974;28;20467;-86
2023/10/06 08:03:26;;;;;;;9.48;3.92;;;;;16.90;101957.00;;;;10398758;28;20227;-86
2023/10/06 08:08:28;;;;;;;9.55;4.25;;;;;17.10;101958.00;;;;10361581;28;20243;-84
2023/10/06 08:13:33;;;;;;;7.70;4.00;;;;;17.30;101978.00;;;;10370568;28;20199;-85
2023/10/06 08:18:35;;;;;;;13.70;4.20;;;;;17.30;101975.00;;;;10392668;28;20207;-86
2023/10/06 08:23:37;;;;;;;11.45;4.65;;;;;17.50;101989.00;;;;10367727;28;20241;-85
2023/10/06 08:28:40;;;;;;;11.32;4.10;;;;;17.60;101991.00;;;;10392704;28;20203;-85
2023/10/06 08:33:43;;;;;;;12.20;4.10;;;;;17.70;102001.00;;;;10393183;28;20203;-84
2023/10/06 08:38:46;;;;;;;12.00;4.35;;;;;17.90;102000.00;;;;10376846;28;20238;-86
2023/10/06 08:43:51;;;;;;;9.38;4.32;;;;;18.30;102007.00;;;;10391152;28;20227;-84
2023/10/06 08:48:56;;;;;;;9.48;3.72;;;;;18.70;101986.00;;;;10391831;28;20246;-86
2023/10/06 08:54:00;;;;;;;10.90;4.57;;;;;19.10;101995.00;;;;10360203;28;20211;-86
2023/10/06 08:59:02;;;;;;;12.18;3.72;;;;;19.10;101980.00;;;;10372270;28;20221;-86
2023/10/06 09:04:06;;;;;;;12.38;4.00;;;;;19.00;101985.00;;;;10377024;28;20631;-88
2023/10/06 09:09:26;;;;;;;10.68;3.60;;;;;18.80;101986.00;;;;10358595;28;20234;-79
2023/10/06 09:14:28;;;;;;;10.43;4.10;;;;;18.80;101989.00;;;;10384216;28;20265;-80
2023/10/06 09:20:00;;;;;;;8.20;3.92;;;;;18.80;101993.00;;;;10388655;28;20207;-81
2023/10/06 09:25:10;;;;;;;8.80;3.50;;;;;18.70;101987.00;;;;10354699;28;20328;-82
2023/10/06 09:30:13;;;;;;;9.88;4.00;;;;;18.80;101989.00;;;;10387560;28;20215;-81
2023/10/06 09:35:21;;;;;;;8.32;3.13;;;;;18.90;101982.00;;;;10369835;28;20931;-82
2023/10/06 09:40:23;;;;;;;7.63;3.90;;;;;19.20;101990.00;;;;10376015;28;20639;-82
2023/10/06 09:45:29;;;;;;;12.65;3.83;;;;;19.50;101988.00;;;;10385412;28;20809;-82
2023/10/06 09:50:32;;;;;;;7.78;3.60;;;;;19.80;101978.00;;;;10390702;28;20253;-81
2023/10/06 09:55:35;;;;;;;10.82;4.50;;;;;20.00;101985.00;;;;10396941;28;20203;-81
2023/10/06 10:00:41;;;;;;;11.02;4.05;;;;;20.20;101980.00;;;;10380049;28;20218;-82
2023/10/06 10:05:44;;;;;;;11.07;4.40;;;;;20.40;101982.00;;;;10362104;28;20241;-82
2023/10/06 10:10:49;;;;;;;7.35;3.83;;;;;20.70;101980.00;;;;10376060;28;20223;-82
2023/10/06 10:16:48;;;;;;;8.57;4.55;;;;;20.80;101974.00;;;;10371272;28;20737;-81
2023/10/06 10:21:53;;;;;;;9.25;3.72;;;;;20.80;101969.00;;;;10211437;28;20727;-78
2023/10/06 10:26:55;;;;;;;8.23;3.45;;;;;20.70;101980.00;;;;10360228;28;20786;-80
2023/10/06 10:32:12;;;;;;;11.50;4.10;;;;;20.60;101966.00;;;;10383185;28;20218;-80
2023/10/06 10:37:14;;;;;;;7.40;3.33;;;;;20.90;101963.00;;;;10397509;28;20255;-80
2023/10/06 10:42:21;;;;;;;9.23;3.45;;;;;21.50;101964.00;;;;10376518;28;20217;-81
2023/10/06 10:47:26;;;;;;;7.93;3.65;;;;;21.70;101952.00;;;;10385028;28;20222;-79
2023/10/06 10:52:29;;;;;;;11.82;3.65;;;;;22.60;101938.00;;;;10400120;28;20593;-81
2023/10/06 10:57:33;;;;;;;9.73;3.60;;;;;22.60;101936.00;;;;10368916;28;20268;-79
2023/10/06 11:02:40;;;;;;;10.63;4.00;;;;;22.80;101930.00;;;;10384080;28;20961;-79
2023/10/06 11:07:57;;;;;;;11.23;3.75;;;;;22.90;101925.00;;;;10403399;28;20219;-79
2023/10/06 11:13:19;;;;;;;12.50;3.75;;;;;23.00;101915.00;;;;10401396;28;20736;-80
2023/10/06 11:18:22;;;;;;;9.38;3.75;;;;;23.20;101911.00;;;;10393942;28;20221;-79
2023/10/06 11:23:24;;;;;;;7.30;3.70;;;;;23.50;101907.00;;;;10381105;28;20748;-80
2023/10/06 11:28:40;;;;;;;7.95;3.35;;;;;23.90;101909.00;;;;10390529;28;20285;-80
2023/10/06 11:33:42;;;;;;;8.85;3.03;;;;;23.90;101915.00;;;;10392347;28;20225;-82
2023/10/06 11:38:45;;;;;;;7.25;3.42;;;;;23.50;101904.00;;;;10392620;28;20673;-84
2023/10/06 11:43:54;;;;;;;7.18;2.83;;;;;23.30;101914.00;;;;10375002;28;20489;-83
2023/10/06 11:49:11;;;;;;;7.38;3.45;;;;;22.90;101911.00;;;;10392234;28;20218;-82
2023/10/06 11:54:14;;;;;;;9.02;3.45;;;;;22.90;101900.00;;;;10392431;28;20210;-82
2023/10/06 11:59:22;;;;;;;9.80;3.13;;;;;22.90;101897.00;;;;10408809;28;20203;-81
2023/10/06 12:04:31;;;;;;;10.65;3.40;;;;;22.70;101887.00;;;;10378698;28;20247;-81
2023/10/06 12:09:33;;;;;;;6.90;3.05;;;;;22.50;101882.00;;;;10402977;28;20859;-81
2023/10/06 12:14:36;;;;;;;8.40;3.13;;;;;22.30;101886.00;;;;10382930;28;20217;-82
2023/10/06 12:19:38;;;;;;;9.18;3.15;;;;;22.00;101879.00;;;;10407647;28;20310;-82
2023/10/06 12:24:40;;;;;;;10.73;3.13;;;;;21.40;101873.00;;;;10411249;28;20211;-81
2023/10/06 12:29:43;;;;;;;8.27;3.25;;;;;21.10;101875.00;;;;10375336;28;20210;-82
2023/10/06 12:34:48;;;;;;;8.52;3.00;;;;;21.30;101871.00;;;;10412782;28;20211;-82
2023/10/06 12:39:51;;;;;;;12.15;3.60;;;;;21.50;101885.00;;;;10373664;28;20731;-86
2023/10/06 12:44:53;;;;;;;6.53;3.28;;;;;21.50;101880.00;;;;10375735;28;20281;-85
2023/10/06 12:49:58;;;;;;;7.75;3.45;;;;;21.50;101879.00;;;;10392037;28;20815;-86
2023/10/06 12:55:05;;;;;;;8.60;3.95;;;;;21.20;101880.00;;;;10373160;28;20227;-85
2023/10/06 13:00:11;;;;;;;9.20;3.38;;;;;21.10;101881.00;;;;10359407;28;20257;-83
2023/10/06 13:05:16;;;;;;;10.00;3.58;;;;;21.20;101886.00;;;;10360361;28;20214;-86
2023/10/06 13:10:23;;;;;;;7.47;3.13;;;;;21.40;101878.00;;;;10407902;28;20285;-86
2023/10/06 13:15:29;;;;;;;8.43;4.43;;;;;21.50;101875.00;;;;10374814;28;20817;-86
2023/10/06 13:20:32;;;;;;;6.40;3.60;;;;;21.60;101870.00;;;;10376509;28;20199;-86
2023/10/06 13:25:37;;;;;;;9.82;3.78;;;;;21.70;101854.00;;;;10400520;28;20315;-86
2023/10/06 13:30:39;;;;;;;7.80;4.03;;;;;21.70;101863.00;;;;10375367;28;20218;-85
2023/10/06 13:35:41;;;;;;;12.15;4.00;;;;;21.90;101857.00;;;;10375203;28;20219;-86
2023/10/06 13:40:44;;;;;;;9.00;3.83;;;;;21.90;101847.00;;;;10375913;28;20198;-86
2023/10/06 13:45:48;;;;;;;10.00;3.58;;;;;22.70;101840.00;;;;10372591;28;20592;-86
2023/10/06 13:50:52;;;;;;;8.57;3.50;;;;;22.60;101826.00;;;;10369558;28;20213;-89
2023/10/06 13:55:55;;;;;;;8.05;3.50;;;;;22.10;101825.00;;;;10413545;28;20218;-88
2023/10/06 14:00:58;;;;;;;10.30;4.05;;;;;21.70;101823.00;;;;10506150;22;20211;-86
2023/10/06 14:06:01;;;;;;;8.57;3.47;;;;;21.70;101819.00;;;;10547282;22;20267;-88
2023/10/06 14:11:09;;;;;;;8.52;3.42;;;;;21.70;101822.00;;;;10595906;22;20259;-88
2023/10/06 14:16:11;;;;;;;10.85;4.53;;;;;21.20;101826.00;;;;10564355;22;20205;-86
2023/10/06 14:21:13;;;;;;;8.68;3.47;;;;;21.20;101819.00;;;;10579748;22;20275;-87
2023/10/06 14:26:18;;;;;;;9.63;3.67;;;;;21.50;101826.00;;;;10457624;28;20260;-89
2023/10/06 14:32:11;;;;;;;10.45;3.95;;;;;20.90;101827.00;;;;10460794;22;20277;-92
2023/10/06 14:37:36;;;;;;;8.25;3.90;;;;;20.80;101826.00;;;;10591304;22;20267;-86
2023/10/06 14:47:58;;;;;;;11.38;3.65;;;;;20.10;101831.00;;;;10501682;28;20299;-87
2023/10/06 14:53:04;;;;;;;9.48;3.38;;;;;19.90;101823.00;;;;10466514;28;20208;-86
2023/10/06 14:58:08;;;;;;;10.27;3.97;;;;;19.70;101824.00;;;;10497195;28;20229;-88
2023/10/06 15:03:12;;;;;;;9.75;3.38;;;;;19.60;101820.00;;;;10451310;28;20217;-81
2023/10/06 15:08:16;;;;;;;9.05;3.38;;;;;19.60;101821.00;;;;10475135;28;20213;-83
2023/10/06 15:13:18;;;;;;;9.15;3.13;;;;;19.60;101815.00;;;;10441209;28;20722;-81
2023/10/06 15:18:24;;;;;;;8.00;3.53;;;;;19.60;101815.00;;;;10466685;28;20213;-81
2023/10/06 15:23:27;;;;;;;9.35;3.67;;;;;19.70;101819.00;;;;10441232;28;20224;-81
2023/10/06 15:28:36;;;;;;;8.02;3.45;;;;;19.80;101815.00;;;;10453501;28;20221;-80
2023/10/06 15:33:43;;;;;;;12.18;3.58;;;;;19.70;101815.00;;;;10458570;28;20198;-80
2023/10/06 15:38:45;;;;;;;9.35;3.50;;;;;19.80;101808.00;;;;10483482;28;20233;-81
2023/10/06 15:43:48;;;;;;;8.98;3.42;;;;;19.90;101806.00;;;;10435586;28;20381;-81
2023/10/06 15:48:55;;;;;;;8.80;2.88;;;;;20.00;101811.00;;;;10464265;28;20226;-80
2023/10/06 15:53:57;;;;;;;5.47;2.92;;;;;20.00;101800.00;;;;10439570;28;20671;-81
2023/10/06 15:58:59;;;;;;;10.65;3.33;;;;;19.90;101805.00;;;;10451579;28;20232;-81
2023/10/06 16:04:03;;;;;;;8.52;3.40;;;;;19.70;101806.00;;;;10449452;28;20685;-81
2023/10/06 16:09:07;;;;;;;12.48;3.30;;;;;19.50;101803.00;;;;10465768;28;20222;-81
2023/10/06 16:14:12;;;;;;;8.38;3.05;;;;;19.30;101792.00;;;;10442164;28;20223;-83
2023/10/06 16:19:14;;;;;;;8.63;2.90;;;;;19.10;101803.00;;;;10465326;28;20307;-82
2023/10/06 16:24:17;;;;;;;11.65;2.83;;;;;18.90;101804.00;;;;10478255;28;20413;-84
2023/10/06 16:29:21;;;;;;;6.75;3.15;;;;;18.70;101796.00;;;;10443408;28;20225;-86
2023/10/06 16:34:23;;;;;;;10.02;3.10;;;;;18.50;101801.00;;;;10477205;28;20692;-84
2023/10/06 16:39:25;;;;;;;9.07;3.60;;;;;18.40;101797.00;;;;10466164;28;20205;-83
2023/10/06 16:44:29;;;;;;;9.27;3.90;;;;;18.20;101805.00;;;;10446762;28;20194;-83
2023/10/06 16:49:33;;;;;;;9.40;3.38;;;;;18.10;101803.00;;;;10474996;28;20285;-85
2023/10/06 16:54:35;;;;;;;6.43;3.00;;;;;17.90;101789.00;;;;10484985;28;20209;-84
2023/10/06 16:59:37;;;;;;;9.20;3.17;;;;;17.80;101794.00;;;;10450749;28;20202;-83
2023/10/06 17:04:39;;;;;;;10.73;3.35;;;;;17.70;101796.00;;;;10460651;28;20222;-85
2023/10/06 17:09:43;;;;;;;9.93;3.30;;;;;17.60;101794.00;;;;10449000;28;20206;-83
2023/10/06 17:14:46;;;;;;;6.35;3.28;;;;;17.50;101809.00;;;;10458743;28;21102;-82
2023/10/06 17:19:49;;;;;;;5.35;3.25;;;;;17.40;101805.00;;;;10469422;28;20205;-82
2023/10/06 17:24:52;;;;;;;9.65;3.35;;;;;17.30;101806.00;;;;10451621;28;20229;-83
2023/10/06 17:29:57;;;;;;;9.48;3.10;;;;;17.20;101805.00;;;;10441807;28;20217;-83
2023/10/06 17:35:00;;;;;;;10.02;4.10;;;;;17.00;101814.00;;;;10446272;28;20689;-83
2023/10/06 17:40:04;;;;;;;6.93;3.22;;;;;16.90;101814.00;;;;10460670;28;20216;-83
2023/10/06 17:45:07;;;;;;;9.05;3.60;;;;;16.80;101814.00;;;;10455464;28;20225;-83
2023/10/06 17:50:12;;;;;;;9.38;3.55;;;;;16.60;101820.00;;;;10471922;28;20281;-82
2023/10/06 17:55:15;;;;;;;10.88;4.20;;;;;16.40;101825.00;;;;10438884;28;20607;-83
2023/10/06 18:00:17;;;;;;;9.00;3.85;;;;;16.30;101825.00;;;;10455510;28;21089;-83
2023/10/06 18:05:20;;;;;;;9.80;5.05;;;;;16.10;101827.00;;;;10467381;28;20316;-82
2023/10/06 18:10:25;;;;;;;12.25;4.47;;;;;16.00;101836.00;;;;10450923;28;20222;-82
2023/10/06 18:15:28;;;;;;;14.27;6.32;;;;;15.90;101830.00;;;;10448851;28;20202;-82
2023/10/06 18:20:30;;;;;;;42.00;31.52;;;;;15.80;101823.00;;;;10463580;28;20190;-82
2023/10/06 18:25:35;;;;;;;28.95;21.48;;;;;15.70;101822.00;;;;10441115;28;20229;-82
2023/10/06 18:30:37;;;;;;;10.52;5.72;;;;;15.50;101816.00;;;;10457955;28;20220;-76
2023/10/06 18:35:39;;;;;;;13.02;5.15;;;;;15.50;101814.00;;;;10440409;28;20234;-77
2023/10/06 18:41:04;;;;;;;8.25;4.18;;;;;15.50;101823.00;;;;10476285;28;20197;-77
2023/10/06 18:46:09;;;;;;;11.38;4.38;;;;;15.50;101823.00;;;;10473672;28;20225;-77
2023/10/06 18:51:12;;;;;;;8.18;4.10;;;;;15.60;101815.00;;;;10455898;28;20213;-77
2023/10/06 18:56:14;;;;;;;13.40;3.95;;;;;15.70;101818.00;;;;10463132;28;20297;-77
2023/10/06 19:01:16;;;;;;;5.70;3.40;;;;;15.80;101812.00;;;;10449950;28;20218;-79
2023/10/06 19:06:18;;;;;;;8.77;3.67;;;;;15.80;101809.00;;;;10458247;28;20217;-76
2023/10/06 19:11:21;;;;;;;8.13;3.05;;;;;15.80;101816.00;;;;10436356;28;20858;-76
2023/10/06 19:16:23;;;;;;;9.38;3.40;;;;;15.90;101805.00;;;;10434894;28;20233;-77
2023/10/06 19:21:25;;;;;;;5.60;2.67;;;;;16.00;101818.00;;;;10443557;28;20206;-78
2023/10/06 19:26:27;;;;;;;6.10;2.72;;;;;16.00;101820.00;;;;10474444;28;20213;-81
2023/10/06 19:31:28;;;;;;;7.05;2.90;;;;;15.90;101823.00;;;;10441794;28;20307;-80
2023/10/06 19:36:34;;;;;;;7.22;2.97;;;;;15.90;101818.00;;;;10461223;28;20216;-79
2023/10/06 19:41:36;;;;;;;9.13;3.05;;;;;15.90;101827.00;;;;10454631;28;20233;-84
2023/10/06 19:46:38;;;;;;;6.93;2.25;;;;;15.80;101823.00;;;;10382830;28;20261;-80
2023/10/06 19:51:41;;;;;;;5.53;2.63;;;;;15.70;101834.00;;;;10348456;28;20244;-72
2023/10/06 19:56:45;;;;;;;8.20;2.88;;;;;15.50;101818.00;;;;10342852;28;20312;-72
2023/10/06 20:01:47;;;;;;;4.57;2.50;;;;;15.40;101825.00;;;;10343357;28;20220;-72
2023/10/06 20:06:49;;;;;;;3.47;2.40;;;;;15.30;101819.00;;;;10348018;28;20263;-72
2023/10/06 20:11:51;;;;;;;4.38;2.78;;;;;15.10;101819.00;;;;10339633;28;20340;-72
2023/10/06 20:16:53;;;;;;;6.65;2.92;;;;;15.00;101821.00;;;;10347758;28;20347;-72
2023/10/06 20:21:55;;;;;;;5.45;2.60;;;;;14.90;101816.00;;;;10346890;28;20220;-72
2023/10/06 20:26:57;;;;;;;8.43;2.90;;;;;14.90;101819.00;;;;10342105;28;20226;-72
2023/10/06 20:31:59;;;;;;;8.02;2.72;;;;;14.90;101815.00;;;;10348628;28;20914;-72
2023/10/06 20:37:04;;;;;;;6.30;2.42;;;;;15.00;101819.00;;;;10345363;28;21713;-72
2023/10/06 20:42:06;;;;;;;12.57;3.00;;;;;15.00;101827.00;;;;10351599;28;20197;-72
2023/10/06 20:47:07;;;;;;;6.70;2.83;;;;;14.90;101824.00;;;;10362718;28;20278;-72
2023/10/06 20:52:09;;;;;;;7.03;2.67;;;;;14.80;101825.00;;;;10352844;28;20316;-72
2023/10/06 20:57:11;;;;;;;4.25;2.70;;;;;14.70;101832.00;;;;10349556;28;20228;-72
2023/10/06 21:02:14;;;;;;;10.77;3.33;;;;;14.60;101838.00;;;;10331530;28;20206;-72
2023/10/06 21:07:16;;;;;;;4.28;2.50;;;;;14.50;101842.00;;;;10350529;28;21812;-72
2023/10/06 21:12:19;;;;;;;6.30;3.00;;;;;14.40;101852.00;;;;10348128;28;20193;-72
2023/10/06 21:17:20;;;;;;;5.45;2.55;;;;;14.40;101870.00;;;;10332702;28;20218;-72
2023/10/06 21:22:23;;;;;;;6.30;3.00;;;;;14.40;101865.00;;;;10351778;28;20233;-72
2023/10/06 21:27:25;;;;;;;7.90;2.83;;;;;14.30;101854.00;;;;10353484;28;20213;-72
2023/10/06 21:32:30;;;;;;;10.52;3.25;;;;;14.10;101847.00;;;;10353383;28;20201;-72
2023/10/06 21:37:33;;;;;;;13.73;3.67;;;;;14.10;101838.00;;;;10326432;28;20217;-72
2023/10/06 21:42:35;;;;;;;9.60;3.42;;;;;14.00;101831.00;;;;10341855;28;20202;-72
2023/10/06 21:47:37;;;;;;;9.07;3.33;;;;;14.00;101809.00;;;;10344517;28;21249;-72
2023/10/06 21:52:40;;;;;;;10.23;3.60;;;;;13.90;101812.00;;;;10346818;28;20990;-72
2023/10/06 21:57:42;;;;;;;7.50;3.42;;;;;13.90;101830.00;;;;10351896;28;20451;-72
2023/10/06 22:03:12;;;;;;;6.00;3.03;;;;;14.00;101839.00;;;;10365635;28;20225;-73
2023/10/06 22:08:33;;;;;;;9.57;3.67;;;;;13.90;101820.00;;;;10350519;28;20312;-74
2023/10/06 22:13:36;;;;;;;10.55;3.95;;;;;13.90;101832.00;;;;10368445;28;20224;-74
2023/10/06 22:18:39;;;;;;;8.65;4.15;;;;;13.90;101836.00;;;;10365649;28;21076;-73
2023/10/06 22:23:42;;;;;;;8.48;3.58;;;;;13.90;101837.00;;;;10369382;28;21756;-74
2023/10/06 22:28:44;;;;;;;10.05;3.97;;;;;13.90;101844.00;;;;10367171;28;21827;-74
2023/10/06 22:33:46;;;;;;;6.63;3.85;;;;;13.90;101846.00;;;;10344004;28;21058;-73
2023/10/06 22:38:52;;;;;;;6.60;4.18;;;;;13.90;101835.00;;;;10371106;28;20237;-74
2023/10/06 22:43:54;;;;;;;11.80;4.13;;;;;13.90;101823.00;;;;10371229;28;20299;-73
2023/10/06 22:48:56;;;;;;;10.02;4.50;;;;;13.90;101823.00;;;;10369849;28;20229;-73
2023/10/06 22:54:00;;;;;;;13.95;4.53;;;;;13.80;101823.00;;;;10368190;28;20217;-74
2023/10/06 22:59:03;;;;;;;9.60;4.00;;;;;13.90;101827.00;;;;10343558;28;20217;-74
2023/10/06 23:04:06;;;;;;;8.93;4.57;;;;;13.90;101826.00;;;;10373214;28;20209;-74
2023/10/06 23:09:12;;;;;;;10.23;4.72;;;;;13.90;101839.00;;;;10374159;28;22020;-73
2023/10/06 23:14:14;;;;;;;11.18;4.57;;;;;14.00;101845.00;;;;10364268;28;20213;-74
2023/10/06 23:19:16;;;;;;;9.68;4.70;;;;;14.10;101843.00;;;;10366975;28;20240;-73
2023/10/06 23:24:18;;;;;;;9.55;4.50;;;;;14.20;101840.00;;;;10368301;28;20261;-73
2023/10/06 23:29:22;;;;;;;8.13;4.03;;;;;14.20;101828.00;;;;10368420;28;20290;-73
2023/10/06 23:34:25;;;;;;;13.73;4.97;;;;;14.20;101837.00;;;;10359466;28;20214;-73
2023/10/06 23:39:28;;;;;;;12.32;4.97;;;;;14.20;101824.00;;;;10368814;28;20205;-74
2023/10/06 23:44:33;;;;;;;9.55;5.03;;;;;14.10;101802.00;;;;10356914;28;22001;-73
2023/10/06 23:49:46;;;;;;;14.95;4.90;;;;;14.00;101792.00;;;;10339207;28;20229;-73
2023/10/06 23:54:48;;;;;;;9.57;4.70;;;;;13.90;101801.00;;;;10367729;28;20209;-73
2023/10/06 23:59:50;;;;;;;13.15;4.85;;;;;13.90;101792.00;;;;10337041;28;20237;-74
